CheckWX is a tool to help pilots better visualize weather data.  It is not intended as a substitute for an official pre-flight weather briefing.

20:47:37 UTC

KBMQ METAR
Burnet Municipal Kate Craddock Field Airport
Burnet, Texas, USA
Current

55 mins ago

KBMQ 181953Z AUTO 04011G16KT 10SM CLR 12/M01 A3020 RMK AO2 SLP224 T01171011
Observed
Feb-18 @ 19:53 UTC
Wind
  • 040° at 11 KTS
  • Gusting to 16 KTS
Visibility
10 SM
Flight Rules
VFR
Cloud Levels
  • Clear skies
Temperature
12°C / 54°F
Dewpoint
-1°C / 30°F
Humidity
41%
Altimeter
30.2" Hg
Pressure
1022.4 hPa
Previous

2 hours ago

KBMQ 181853Z AUTO 05011KT 10SM CLR 09/M02 A3023 RMK AO2 SLP236 T00941017
Observed
Feb-18 @ 18:53 UTC
Wind
  • 050° at 11 KTS
Visibility
10 SM
Flight Rules
VFR
Cloud Levels
  • Clear skies
Temperature
C / 48°F
Dewpoint
-2°C / 28°F
Humidity
46%
Altimeter
30.23" Hg
Pressure
1023.6 hPa
Previous

3 hours ago

KBMQ 181753Z AUTO 06010KT 10SM CLR 09/M02 A3025 RMK AO2 SLP241 T00941017 10094 20050 50008
Observed
Feb-18 @ 17:53 UTC
Wind
  • 060° at 10 KTS
Visibility
10 SM
Flight Rules
VFR
Cloud Levels
  • Clear skies
Temperature
C / 48°F
Dewpoint
-2°C / 28°F
Humidity
46%
Altimeter
30.25" Hg
Pressure
1024.1 hPa